SBMO

Zumbi dos Palmares Airport

Maceió, Brazil
TAF SBMO 230400Z 2306/2406 14007KT 7000 RA BKN016 TN22/2308Z TX26/231 5Z PROB40 TEMPO 2308/2310 4000 RA BKN012 BKN016 BECMG 2312/2314 SCT020 BECMG 2403/2405 31003KT RMK PEI
Issued Valid From Valid To
Apr-23 @ 04:00 UTC
(5 hours ago)
Apr-23 @ 06:00 UTC
(3 hours ago)
Apr-24 @ 06:00 UTC
(in 21 hours)
Apr-23 @ 06:00 to Apr-23 @ 12:00
TAF SBMO 230400Z 2306/2406 14007KT 7000 RA BKN016 TN22/2308Z TX26/231 5Z
Wind Visibility Clouds Conditions
140° at 7 knots 7,001 meters
  • Broken at 1,600' AGL
  • Rain
Temporary  (Probability 40%) Apr-23 @ 08:00 to Apr-23 @ 10:00
PROB40 TEMPO 2308/2310 4000 RA BKN012 BKN016
Visibility Clouds Conditions
4,007 meters
  • Broken at 1,200' AGL
  • Broken at 1,600' AGL
  • Rain
Becoming Apr-23 @ 12:00 to Apr-24 @ 03:00
BECMG 2312/2314 SCT020
Wind Visibility Clouds Conditions
140° at 7 knots 7,001 meters
  • Scattered at 2,000' AGL
  • Rain
Becoming Apr-24 @ 03:00 to Apr-24 @ 06:00
BECMG 2403/2405 31003KT RMK PEI
Wind Visibility Clouds Conditions
310° at 3 knots 7,001 meters
  • Scattered at 2,000' AGL
  • Rain
TAF SBMO 230400Z 2306/2406 14007KT 7000 RA BKN016 TN22/2308Z TX26/231 5Z PROB40 TEMPO 2308/2310 4000 RA BKN012 BKN016 BECMG 2312/2314 SCT020 BECMG 2403/2405 31003KT RMK PEI
Issued Apr-23 @ 04:00 UTC
(5 hours ago)
Valid From Apr-23 @ 06:00 UTC
(3 hours ago)
Valid To Apr-24 @ 06:00 UTC
(in 21 hours)
Apr-23 @ 06:00 - Apr-23 @ 12:00
Wind Visibility
140° at 7 knots 7,001 meters
Clouds
  • Broken at 1,600' AGL
Conditions
  • Rain
Probability 40% Temporary Apr-23 @ 08:00 - Apr-23 @ 10:00
Clouds
  • Broken at 1,200' AGL
  • Broken at 1,600' AGL
Conditions
  • Rain
Becoming Apr-23 @ 12:00 - Apr-24 @ 03:00
Wind Visibility
140° at 7 knots 7,001 meters
Clouds
  • Scattered at 2,000' AGL
Conditions
  • Rain
Becoming Apr-24 @ 03:00 - Apr-24 @ 06:00
Wind Visibility
310° at 3 knots 7,001 meters
Clouds
  • Scattered at 2,000' AGL
Conditions
  • Rain